createdAt,value
2023-04-03T00:01:08.453Z,7.32
2023-04-03T00:03:43.769Z,7.32
2023-04-03T00:06:37.359Z,7.28
2023-04-03T00:09:12.078Z,7.24
2023-04-03T00:11:53.420Z,7.17
2023-04-03T00:14:29.916Z,7.10
2023-04-03T00:17:17.887Z,7.03
2023-04-03T00:19:54.551Z,6.98
2023-04-03T00:22:29.061Z,6.93
2023-04-03T00:25:04.927Z,6.93
2023-04-03T00:27:50.885Z,6.88
2023-04-03T00:30:48.063Z,6.84
2023-04-03T00:33:29.754Z,6.81
2023-04-03T00:36:13.883Z,6.74
2023-04-03T00:38:48.764Z,6.71
2023-04-03T00:41:23.665Z,6.71
2023-04-03T00:44:00.137Z,6.65
2023-04-03T00:46:28.235Z,6.63
2023-04-03T00:48:59.920Z,6.61
2023-04-03T00:51:48.518Z,6.61
2023-04-03T00:54:19.289Z,6.60
2023-04-03T00:56:57.185Z,6.60
2023-04-03T00:59:53.883Z,6.55
2023-04-03T01:02:47.107Z,6.53
2023-04-03T01:05:20.940Z,6.52
2023-04-03T01:07:55.108Z,6.48
2023-04-03T01:10:34.349Z,6.43
2023-04-03T01:13:20.051Z,6.39
2023-04-03T01:15:56.423Z,6.37
2023-04-03T01:18:35.702Z,6.37
2023-04-03T01:21:38.087Z,6.34
2023-04-03T01:24:30.086Z,6.30
2023-04-03T01:27:03.533Z,6.27
2023-04-03T01:29:37.054Z,6.22
2023-04-03T01:35:30.823Z,6.19
2023-04-03T01:38:14.150Z,6.17
2023-04-03T01:40:50.191Z,6.22
2023-04-03T01:43:34.726Z,6.18
2023-04-03T01:46:18.458Z,6.17
2023-04-03T01:48:54.314Z,6.18
2023-04-03T01:51:27.522Z,6.16
2023-04-03T01:53:58.917Z,6.14
2023-04-03T01:56:57.345Z,6.11
2023-04-03T01:59:30.430Z,6.08
2023-04-03T02:02:10.079Z,6.07
2023-04-03T02:04:40.799Z,6.05
2023-04-03T02:07:32.301Z,6.03
2023-04-03T02:10:15.383Z,6.04
2023-04-03T02:12:59.337Z,5.96
2023-04-03T02:15:49.436Z,5.91
2023-04-03T02:18:23.240Z,5.86
2023-04-03T02:21:00.109Z,5.76
2023-04-03T02:23:40.207Z,5.74
2023-04-03T02:26:29.374Z,5.76
2023-04-03T02:29:02.375Z,5.63
2023-04-03T02:31:50.324Z,5.64
2023-04-03T02:34:27.109Z,5.62
2023-04-03T02:37:00.105Z,5.63
2023-04-03T02:39:33.312Z,5.62
2023-04-03T02:42:01.251Z,5.58
2023-04-03T02:44:38.318Z,5.48
2023-04-03T02:47:18.186Z,5.50
2023-04-03T02:50:01.221Z,5.49
2023-04-03T02:52:29.851Z,5.48
2023-04-03T02:55:11.755Z,5.41
2023-04-03T02:57:59.976Z,5.42
2023-04-03T03:00:33.297Z,5.38
2023-04-03T03:03:13.637Z,5.35
2023-04-03T03:05:52.503Z,5.30
2023-04-03T03:08:38.556Z,5.29
2023-04-03T03:11:20.056Z,5.30
2023-04-03T03:13:56.417Z,5.30
2023-04-03T03:16:38.107Z,5.29
2023-04-03T03:19:22.525Z,5.27
2023-04-03T03:21:55.306Z,5.27
2023-04-03T03:24:23.291Z,5.22
2023-04-03T03:26:59.180Z,5.17
2023-04-03T03:29:57.567Z,5.17
2023-04-03T03:32:33.575Z,5.18
2023-04-03T03:35:06.500Z,5.17
2023-04-03T03:37:52.039Z,5.13
2023-04-03T03:40:30.723Z,5.13
2023-04-03T03:43:01.933Z,5.06
2023-04-03T03:45:51.243Z,5.01
2023-04-03T03:48:44.704Z,4.99
2023-04-03T03:51:24.508Z,4.98
2023-04-03T03:53:57.998Z,4.97
2023-04-03T03:56:32.301Z,4.96
2023-04-03T03:59:05.099Z,4.96
2023-04-03T04:01:38.992Z,4.95
2023-04-03T04:04:12.184Z,4.91
2023-04-03T04:06:43.133Z,4.93
2023-04-03T04:09:14.204Z,4.87
2023-04-03T04:11:47.140Z,4.88
2023-04-03T04:14:18.119Z,4.87
2023-04-03T04:16:52.792Z,4.84
2023-04-03T04:19:39.294Z,4.83
2023-04-03T04:22:30.318Z,4.80
2023-04-03T04:25:01.591Z,4.82
2023-04-03T04:28:03.718Z,4.82
2023-04-03T04:30:36.941Z,4.77
2023-04-03T04:33:05.151Z,4.76
2023-04-03T04:35:58.780Z,4.76
2023-04-03T04:38:32.101Z,4.72
2023-04-03T04:41:05.188Z,4.69
2023-04-03T04:43:44.170Z,4.66
2023-04-03T04:46:26.677Z,4.63
2023-04-03T04:49:00.899Z,4.63
2023-04-03T04:51:41.051Z,4.65
2023-04-03T04:54:12.720Z,4.61
2023-04-03T04:56:50.206Z,4.57
2023-04-03T04:59:23.318Z,4.58
2023-04-03T05:02:03.922Z,4.60
2023-04-03T05:04:57.453Z,4.63
2023-04-03T05:07:31.807Z,4.65
2023-04-03T05:10:16.374Z,4.60
2023-04-03T05:13:02.215Z,4.61
2023-04-03T05:15:30.320Z,4.61
2023-04-03T05:18:04.784Z,4.64
2023-04-03T05:20:46.095Z,4.62
2023-04-03T05:23:18.885Z,4.63
2023-04-03T05:25:59.379Z,4.59
2023-04-03T05:28:33.457Z,4.61
2023-04-03T05:31:06.533Z,4.63
2023-04-03T05:34:15.597Z,4.68
2023-04-03T05:36:48.377Z,4.69
2023-04-03T05:39:42.191Z,4.66
2023-04-03T05:42:22.901Z,4.65
2023-04-03T05:45:05.528Z,4.55
2023-04-03T05:47:36.983Z,4.60
2023-04-03T05:50:36.275Z,4.60
2023-04-03T05:53:19.596Z,4.64
2023-04-03T05:58:50.721Z,4.71
2023-04-03T06:01:32.547Z,4.69
2023-04-03T06:04:06.462Z,4.69
2023-04-03T06:06:57.486Z,4.67
2023-04-03T06:09:29.535Z,4.67
2023-04-03T06:12:02.854Z,4.70
2023-04-03T06:14:56.223Z,4.72
2023-04-03T06:17:32.329Z,4.73
2023-04-03T06:20:00.802Z,4.75
2023-04-03T06:22:32.582Z,4.75
2023-04-03T06:25:07.569Z,4.75
2023-04-03T06:27:40.491Z,4.78
2023-04-03T06:30:14.188Z,4.80
2023-04-03T06:32:47.165Z,4.85
2023-04-03T06:35:20.272Z,4.82
2023-04-03T06:38:01.653Z,4.91
2023-04-03T06:40:42.943Z,5.39
2023-04-03T06:43:24.387Z,5.69
2023-04-03T06:49:13.328Z,5.69
2023-04-03T06:51:41.613Z,5.67
2023-04-03T06:54:34.908Z,5.67
2023-04-03T06:57:07.729Z,5.55
2023-04-03T06:59:39.073Z,5.47
2023-04-03T07:02:10.642Z,5.43
2023-04-03T07:04:47.548Z,5.39
2023-04-03T07:07:27.992Z,5.37
2023-04-03T07:09:59.533Z,5.33
2023-04-03T07:12:33.635Z,5.32
2023-04-03T07:15:11.052Z,5.31
2023-04-03T07:17:53.032Z,5.27
2023-04-03T07:20:25.917Z,5.27
2023-04-03T07:23:00.106Z,5.27
2023-04-03T07:25:34.106Z,5.30
2023-04-03T07:28:14.318Z,5.32
2023-04-03T07:30:49.598Z,5.35
2023-04-03T07:33:26.532Z,5.42
2023-04-03T07:35:54.701Z,5.44
2023-04-03T07:38:28.180Z,5.46
2023-04-03T07:41:08.214Z,5.44
2023-04-03T07:43:47.334Z,5.42
2023-04-03T07:46:30.752Z,5.38
2023-04-03T07:49:05.022Z,5.42
2023-04-03T07:51:58.203Z,5.40
2023-04-03T07:54:45.973Z,5.46
2023-04-03T07:57:18.885Z,5.47
2023-04-03T07:59:58.133Z,5.49
2023-04-03T08:02:37.222Z,5.51
2023-04-03T08:05:14.039Z,5.56
2023-04-03T08:07:42.103Z,5.60
2023-04-03T08:10:22.872Z,5.65
2023-04-03T08:13:00.650Z,5.74
2023-04-03T08:15:48.842Z,5.79
2023-04-03T08:18:18.002Z,5.77
2023-04-03T08:20:48.715Z,5.83
2023-04-03T08:23:19.931Z,5.80
2023-04-03T08:25:48.353Z,5.81
2023-04-03T08:28:21.266Z,5.84
2023-04-03T08:30:49.254Z,5.86
2023-04-03T08:33:26.236Z,5.88
2023-04-03T08:35:56.677Z,5.88
2023-04-03T08:38:24.630Z,5.89
2023-04-03T08:41:07.329Z,5.95
2023-04-03T08:43:56.794Z,6.04
2023-04-03T08:46:29.818Z,6.04
2023-04-03T08:49:00.501Z,6.12
2023-04-03T08:51:33.684Z,6.08
2023-04-03T08:56:59.405Z,5.99
2023-04-03T08:59:30.655Z,6.09
2023-04-03T09:02:00.177Z,5.97
2023-04-03T09:04:31.413Z,5.95
2023-04-03T09:07:10.809Z,5.95
2023-04-03T09:09:46.955Z,5.99
2023-04-03T09:12:27.988Z,6.01
2023-04-03T09:15:39.205Z,6.04
2023-04-03T09:18:24.782Z,6.06
2023-04-03T09:21:02.081Z,6.03
2023-04-03T09:23:49.758Z,6.04
2023-04-03T09:26:23.824Z,6.08
2023-04-03T09:29:01.844Z,6.18
2023-04-03T09:31:35.368Z,6.24
2023-04-03T09:34:10.252Z,6.21
2023-04-03T09:37:08.101Z,6.29
2023-04-03T09:40:01.811Z,6.28
2023-04-03T09:42:30.990Z,6.30
2023-04-03T09:45:09.076Z,6.22
2023-04-03T09:47:40.956Z,6.23
2023-04-03T09:50:27.555Z,6.28
2023-04-03T09:53:00.098Z,6.34
2023-04-03T09:55:37.187Z,6.29
2023-04-03T09:58:42.717Z,6.39
2023-04-03T10:01:30.315Z,6.50
2023-04-03T10:04:25.148Z,6.51
2023-04-03T10:06:57.974Z,6.59
2023-04-03T10:09:30.420Z,6.60
2023-04-03T10:12:09.437Z,6.72
2023-04-03T10:15:00.499Z,6.82
2023-04-03T10:17:54.028Z,6.90
2023-04-03T10:20:29.841Z,6.97
2023-04-03T10:23:25.467Z,7.05
2023-04-03T10:26:19.678Z,7.09
2023-04-03T10:29:30.784Z,7.04
2023-04-03T10:32:41.632Z,6.89
2023-04-03T10:35:33.971Z,6.96
2023-04-03T10:38:57.714Z,7.07
2023-04-03T10:41:46.841Z,7.11
2023-04-03T10:44:34.518Z,7.18
2023-04-03T10:47:17.439Z,7.21
2023-04-03T10:49:57.093Z,7.30
2023-04-03T10:53:00.805Z,7.29
2023-04-03T10:55:39.497Z,7.32
2023-04-03T10:58:10.611Z,7.40
2023-04-03T11:00:46.048Z,7.42
2023-04-03T11:03:34.634Z,7.37
2023-04-03T11:06:04.489Z,7.48
2023-04-03T11:09:01.913Z,7.56
2023-04-03T11:11:44.012Z,7.70
2023-04-03T11:14:18.638Z,7.67
2023-04-03T11:16:58.711Z,7.74
2023-04-03T11:19:57.214Z,7.75
2023-04-03T11:22:34.531Z,7.88
2023-04-03T11:25:12.721Z,7.95
2023-04-03T11:27:44.666Z,7.97
2023-04-03T11:30:22.760Z,8.03
2023-04-03T11:33:05.924Z,8.13
2023-04-03T11:35:40.662Z,8.14
2023-04-03T11:38:37.187Z,8.13
2023-04-03T11:41:35.324Z,8.18
2023-04-03T11:44:08.135Z,8.10
2023-04-03T11:46:57.630Z,8.14
2023-04-03T11:50:03.436Z,8.08
2023-04-03T11:52:45.166Z,7.93
2023-04-03T11:55:33.784Z,7.86
2023-04-03T11:58:15.638Z,7.81
2023-04-03T12:04:11.670Z,7.84
2023-04-03T12:06:51.204Z,7.90
2023-04-03T12:09:30.541Z,8.04
2023-04-03T12:11:59.680Z,8.12
2023-04-03T12:14:30.438Z,8.07
2023-04-03T12:17:14.326Z,8.06
2023-04-03T12:19:50.117Z,8.01
2023-04-03T12:22:31.860Z,7.93
2023-04-03T12:25:27.441Z,7.93
2023-04-03T12:28:00.188Z,7.88
2023-04-03T12:30:34.016Z,7.88
2023-04-03T12:33:20.252Z,7.79
2023-04-03T12:36:08.600Z,7.68
2023-04-03T12:39:30.894Z,7.80
2023-04-03T12:42:20.696Z,7.86
2023-04-03T12:45:02.999Z,7.98
2023-04-03T12:47:43.292Z,8.06
2023-04-03T12:50:36.282Z,8.01
2023-04-03T12:53:16.404Z,7.96
2023-04-03T12:55:45.160Z,7.91
2023-04-03T12:58:26.129Z,7.92
2023-04-03T13:01:13.550Z,7.93
2023-04-03T13:03:49.133Z,8.02
2023-04-03T13:06:22.037Z,8.00
2023-04-03T13:09:01.799Z,8.04
2023-04-03T13:11:32.914Z,8.08
2023-04-03T13:14:19.249Z,8.15
2023-04-03T13:17:06.842Z,8.13
2023-04-03T13:19:50.767Z,8.19
2023-04-03T13:22:45.830Z,8.23
2023-04-03T13:25:17.749Z,8.25
2023-04-03T13:27:46.489Z,8.22
2023-04-03T13:30:30.874Z,8.20
2023-04-03T13:33:02.711Z,8.24
2023-04-03T13:35:45.759Z,8.22
2023-04-03T13:38:19.811Z,8.16
2023-04-03T13:40:55.380Z,8.20
2023-04-03T13:43:28.610Z,8.25
2023-04-03T13:46:00.863Z,8.31
2023-04-03T13:48:46.329Z,8.38
2023-04-03T13:51:41.226Z,8.41
2023-04-03T13:54:32.232Z,8.33
2023-04-03T13:57:01.561Z,8.30
2023-04-03T13:59:35.396Z,8.24
2023-04-03T14:02:34.882Z,8.27
2023-04-03T14:05:10.637Z,8.33
2023-04-03T14:08:03.668Z,8.28
2023-04-03T14:10:43.024Z,8.27
2023-04-03T14:13:28.424Z,8.22
2023-04-03T14:16:15.439Z,8.15
2023-04-03T14:18:49.568Z,8.16
2023-04-03T14:21:23.659Z,8.16
2023-04-03T14:23:52.118Z,8.07
2023-04-03T14:26:24.717Z,8.04
2023-04-03T14:29:06.822Z,8.04
2023-04-03T14:31:43.578Z,8.08
2023-04-03T14:34:22.897Z,8.09
2023-04-03T14:36:51.027Z,8.08
2023-04-03T14:39:44.422Z,8.02
2023-04-03T14:42:20.810Z,8.00
2023-04-03T14:44:51.673Z,7.98
2023-04-03T14:47:30.408Z,7.97
2023-04-03T14:50:04.660Z,7.94
2023-04-03T14:52:38.476Z,7.94
2023-04-03T14:55:14.362Z,7.88
2023-04-03T14:57:53.623Z,7.92
2023-04-03T15:00:22.824Z,7.92
2023-04-03T15:02:56.930Z,7.88
2023-04-03T15:05:32.659Z,7.94
2023-04-03T15:08:11.604Z,7.91
2023-04-03T15:10:40.105Z,7.93
2023-04-03T15:13:11.282Z,7.96
2023-04-03T15:15:45.503Z,7.97
2023-04-03T15:18:19.435Z,7.99
2023-04-03T15:20:47.584Z,7.96
2023-04-03T15:23:19.193Z,7.87
2023-04-03T15:25:48.254Z,7.86
2023-04-03T15:28:42.958Z,7.86
2023-04-03T15:31:15.503Z,7.81
2023-04-03T15:33:43.588Z,7.78
2023-04-03T15:36:23.022Z,7.76
2023-04-03T15:39:03.200Z,7.74
2023-04-03T15:42:15.740Z,7.73
2023-04-03T15:44:57.362Z,7.72
2023-04-03T15:47:30.298Z,7.73
2023-04-03T15:50:08.322Z,7.72
2023-04-03T15:52:42.084Z,7.66
2023-04-03T15:55:21.373Z,7.62
2023-04-03T15:57:54.087Z,7.61
2023-04-03T16:00:22.473Z,7.59
2023-04-03T16:02:56.801Z,7.53
2023-04-03T16:05:24.858Z,7.46
2023-04-03T16:07:57.601Z,7.42
2023-04-03T16:10:28.274Z,7.36
2023-04-03T16:13:08.712Z,7.40
2023-04-03T16:15:37.609Z,7.37
2023-04-03T16:18:06.293Z,7.33
2023-04-03T16:20:40.355Z,7.33
2023-04-03T16:23:11.965Z,7.32
2023-04-03T16:25:49.333Z,7.33
2023-04-03T16:28:23.668Z,7.29
2023-04-03T16:30:52.054Z,7.26
2023-04-03T16:33:26.392Z,7.12
2023-04-03T16:36:03.088Z,7.12
2023-04-03T16:38:36.525Z,7.09
2023-04-03T16:41:06.852Z,7.11
2023-04-03T16:43:47.148Z,7.10
2023-04-03T16:46:20.420Z,7.05
2023-04-03T16:48:54.699Z,6.99
2023-04-03T16:51:28.581Z,6.98
2023-04-03T16:54:08.849Z,6.96
2023-04-03T16:56:52.291Z,6.97
2023-04-03T16:59:24.564Z,6.96
2023-04-03T17:01:56.030Z,6.94
2023-04-03T17:04:28.925Z,6.87
2023-04-03T17:07:09.748Z,6.83
2023-04-03T17:09:42.678Z,6.83
2023-04-03T17:12:13.381Z,6.80
2023-04-03T17:14:45.993Z,6.74
2023-04-03T17:17:28.501Z,6.76
2023-04-03T17:19:57.189Z,6.77
2023-04-03T17:22:26.244Z,6.76
2023-04-03T17:25:26.721Z,6.69
2023-04-03T17:27:58.486Z,6.66
2023-04-03T17:30:33.318Z,6.87
2023-04-03T17:33:06.244Z,6.83
2023-04-03T17:35:49.080Z,6.76
2023-04-03T17:38:50.221Z,6.73
2023-04-03T17:41:46.035Z,6.69
2023-04-03T17:44:35.014Z,6.61
2023-04-03T17:47:17.401Z,6.59
2023-04-03T17:49:53.212Z,6.61
2023-04-03T17:52:21.236Z,6.58
2023-04-03T17:54:52.922Z,6.49
2023-04-03T17:57:25.740Z,6.49
2023-04-03T18:00:03.475Z,6.50
2023-04-03T18:02:57.538Z,6.48
2023-04-03T18:05:55.473Z,6.44
2023-04-03T18:08:52.557Z,6.37
2023-04-03T18:11:28.705Z,6.32
2023-04-03T18:14:06.256Z,6.35
2023-04-03T18:16:40.935Z,6.34
2023-04-03T18:19:38.933Z,6.33
2023-04-03T18:22:36.841Z,6.30
2023-04-03T18:25:11.153Z,6.30
2023-04-03T18:27:48.040Z,6.26
2023-04-03T18:30:23.877Z,6.22
2023-04-03T18:33:03.582Z,6.18
2023-04-03T18:35:36.752Z,6.15
2023-04-03T18:38:12.492Z,6.16
2023-04-03T18:40:50.701Z,6.14
2023-04-03T18:49:45.381Z,6.06
2023-04-03T18:52:55.482Z,6.04
2023-04-03T18:55:37.336Z,5.95
2023-04-03T18:58:24.187Z,5.97
2023-04-03T19:01:00.476Z,5.96
2023-04-03T19:03:51.569Z,5.94
2023-04-03T19:06:26.201Z,5.91
2023-04-03T19:09:01.088Z,5.94
2023-04-03T19:11:38.098Z,5.88
2023-04-03T19:14:32.243Z,5.90
2023-04-03T19:17:09.890Z,5.88
2023-04-03T19:19:41.633Z,5.90
2023-04-03T19:22:14.477Z,5.88
2023-04-03T19:24:42.611Z,5.87
2023-04-03T19:27:37.255Z,5.84
2023-04-03T19:33:01.659Z,5.76
2023-04-03T19:35:44.744Z,5.73
2023-04-03T19:41:26.222Z,5.65
2023-04-03T19:44:05.474Z,5.62
2023-04-03T19:46:51.410Z,5.58
2023-04-03T19:49:39.163Z,5.56
2023-04-03T19:52:36.407Z,5.53
2023-04-03T19:55:15.126Z,5.52
2023-04-03T19:58:13.404Z,5.53
2023-04-03T20:00:44.941Z,5.49
2023-04-03T20:03:19.232Z,5.42
2023-04-03T20:08:57.798Z,5.43
2023-04-03T20:11:43.070Z,5.41
2023-04-03T20:14:40.710Z,5.38
2023-04-03T20:17:19.742Z,5.35
2023-04-03T20:20:09.949Z,5.32
2023-04-03T20:22:42.554Z,5.28
2023-04-03T20:25:43.780Z,5.29
2023-04-03T20:28:48.637Z,5.26
2023-04-03T20:31:28.886Z,5.24
2023-04-03T20:33:58.874Z,5.18
2023-04-03T20:36:29.721Z,5.15
2023-04-03T20:39:06.786Z,5.07
2023-04-03T20:41:40.536Z,5.06
2023-04-03T20:44:18.191Z,5.00
2023-04-03T20:46:53.540Z,4.95
2023-04-03T20:49:28.960Z,4.91
2023-04-03T20:52:07.366Z,4.86
2023-04-03T20:54:36.736Z,4.85
2023-04-03T21:00:08.702Z,4.78
2023-04-03T21:02:42.686Z,4.76
2023-04-03T21:05:35.282Z,4.74
2023-04-03T21:08:41.926Z,4.72
2023-04-03T21:11:48.690Z,4.71
2023-04-03T21:14:54.917Z,4.64
2023-04-03T21:17:30.263Z,4.61
2023-04-03T21:20:07.004Z,4.63
2023-04-03T21:22:45.043Z,4.51
2023-04-03T21:25:19.160Z,4.44
2023-04-03T21:27:54.090Z,4.41
2023-04-03T21:30:31.061Z,4.38
2023-04-03T21:33:03.162Z,4.40
2023-04-03T21:35:35.988Z,4.37
2023-04-03T21:38:07.543Z,4.36
2023-04-03T21:40:36.848Z,4.35
2023-04-03T21:43:10.393Z,4.35
2023-04-03T21:45:44.891Z,4.37
2023-04-03T21:48:21.619Z,4.29
2023-04-03T21:50:55.611Z,4.30
2023-04-03T21:53:32.095Z,4.21
2023-04-03T21:56:04.517Z,4.23
2023-04-03T21:58:33.968Z,4.19
2023-04-03T22:01:16.864Z,4.19
2023-04-03T22:03:50.635Z,4.14
2023-04-03T22:06:18.678Z,4.13
2023-04-03T22:08:47.704Z,4.10
2023-04-03T22:11:23.828Z,4.09
2023-04-03T22:13:59.035Z,4.07
2023-04-03T22:16:32.108Z,4.09
2023-04-03T22:19:00.948Z,4.04
2023-04-03T22:21:33.769Z,4.01
2023-04-03T22:24:06.660Z,4.02
2023-04-03T22:26:40.879Z,4.02
2023-04-03T22:29:30.830Z,3.99
2023-04-03T22:32:07.616Z,3.98
2023-04-03T22:34:39.421Z,3.97
2023-04-03T22:37:18.100Z,3.98
2023-04-03T22:39:52.281Z,3.99
2023-04-03T22:42:23.290Z,3.93
2023-04-03T22:45:05.233Z,3.93
2023-04-03T22:47:42.830Z,3.87
2023-04-03T22:50:14.791Z,3.86
2023-04-03T22:52:43.095Z,3.85
2023-04-03T22:55:19.360Z,3.83
2023-04-03T22:57:53.618Z,3.82
2023-04-03T23:00:32.097Z,3.75
2023-04-03T23:03:00.831Z,3.75
2023-04-03T23:05:36.933Z,3.73
2023-04-03T23:08:08.997Z,3.73
2023-04-03T23:10:44.808Z,3.70
2023-04-03T23:13:23.482Z,3.63
2023-04-03T23:16:01.451Z,3.61
2023-04-03T23:18:36.318Z,3.59
2023-04-03T23:21:16.889Z,3.51
2023-04-03T23:23:49.679Z,3.46
2023-04-03T23:26:17.773Z,3.42
2023-04-03T23:28:46.038Z,3.36
2023-04-03T23:31:22.867Z,3.34
2023-04-03T23:33:50.879Z,3.30
2023-04-03T23:36:24.606Z,3.27
2023-04-03T23:39:06.274Z,3.23
2023-04-03T23:41:39.928Z,3.22
2023-04-03T23:44:15.031Z,3.20
2023-04-03T23:46:55.286Z,3.14
2023-04-03T23:49:26.270Z,3.11
2023-04-03T23:51:57.789Z,3.07
2023-04-03T23:54:32.826Z,2.99
2023-04-03T23:57:06.267Z,3.00
2023-04-03T23:59:34.351Z,2.90
